createdAt,value
2019-01-14T00:01:29.892Z,23.23
2019-01-14T00:03:59.220Z,15.73
2019-01-14T00:06:28.702Z,29.73
2019-01-14T00:08:58.019Z,21.17
2019-01-14T00:11:27.372Z,33.37
2019-01-14T00:13:56.696Z,21.40
2019-01-14T00:16:26.068Z,18.07
2019-01-14T00:18:55.423Z,9.83
2019-01-14T00:21:24.761Z,17.93
2019-01-14T00:23:54.204Z,10.60
2019-01-14T00:26:23.620Z,12.50
2019-01-14T00:28:53.006Z,11.73
2019-01-14T00:31:22.305Z,6.97
2019-01-14T00:33:52.430Z,8.47
2019-01-14T00:36:21.782Z,9.57
2019-01-14T00:38:51.067Z,8.00
2019-01-14T00:41:20.381Z,5.57
2019-01-14T00:43:49.807Z,10.30
2019-01-14T00:46:19.131Z,9.33
2019-01-14T00:48:48.417Z,6.53
2019-01-14T00:51:17.719Z,7.87
2019-01-14T00:53:47.062Z,9.80
2019-01-14T00:56:16.450Z,10.03
2019-01-14T00:58:45.733Z,7.53
2019-01-14T01:01:15.066Z,4.90
2019-01-14T01:03:44.366Z,5.80
2019-01-14T01:06:13.747Z,13.97
2019-01-14T01:08:43.067Z,5.73
2019-01-14T01:11:12.410Z,8.33
2019-01-14T01:13:41.705Z,8.53
2019-01-14T01:16:11.012Z,8.20
2019-01-14T01:18:40.319Z,8.93
2019-01-14T01:21:09.676Z,10.20
2019-01-14T01:23:38.987Z,7.70
2019-01-14T01:26:08.316Z,9.73
2019-01-14T01:28:37.670Z,9.10
2019-01-14T01:31:07.025Z,12.97
2019-01-14T01:33:36.372Z,12.53
2019-01-14T01:36:05.667Z,13.40
2019-01-14T01:38:35.063Z,12.53
2019-01-14T01:41:04.593Z,15.40
2019-01-14T01:43:33.973Z,12.93
2019-01-14T01:46:03.277Z,14.47
2019-01-14T01:48:32.587Z,13.50
2019-01-14T01:51:02.030Z,11.57
2019-01-14T01:53:31.410Z,13.00
2019-01-14T01:56:00.730Z,13.13
2019-01-14T01:58:30.087Z,22.53
2019-01-14T02:00:59.515Z,19.80
2019-01-14T02:03:28.934Z,12.07
2019-01-14T02:05:58.360Z,24.70
2019-01-14T02:08:27.653Z,13.77
2019-01-14T02:10:56.931Z,22.70
2019-01-14T02:13:26.326Z,26.40
2019-01-14T02:15:55.631Z,19.17
2019-01-14T02:18:24.912Z,18.93
2019-01-14T02:20:54.240Z,19.17
2019-01-14T02:23:23.532Z,25.33
2019-01-14T02:25:52.966Z,23.63
2019-01-14T02:28:22.248Z,20.13
2019-01-14T02:30:51.600Z,22.83
2019-01-14T02:33:20.940Z,22.40
2019-01-14T02:35:50.539Z,15.83
2019-01-14T02:38:19.891Z,12.90
2019-01-14T02:40:49.323Z,28.10
2019-01-14T02:43:18.624Z,29.20
2019-01-14T02:45:48.152Z,24.20
2019-01-14T02:48:17.499Z,27.20
2019-01-14T02:50:46.968Z,25.07
2019-01-14T02:53:16.388Z,29.13
2019-01-14T02:55:45.792Z,22.67
2019-01-14T02:58:15.282Z,22.53
2019-01-14T03:00:44.779Z,18.83
2019-01-14T03:03:14.266Z,21.20
2019-01-14T03:05:43.830Z,11.33
2019-01-14T03:08:13.293Z,16.87
2019-01-14T03:10:42.659Z,16.30
2019-01-14T03:13:12.112Z,25.67
2019-01-14T03:15:41.534Z,29.80
2019-01-14T03:18:10.998Z,29.37
2019-01-14T03:20:40.591Z,14.20
2019-01-14T03:23:10.184Z,22.17
2019-01-14T03:25:42.034Z,20.73
2019-01-14T03:28:11.544Z,20.03
2019-01-14T03:30:40.907Z,20.03
2019-01-14T03:33:10.488Z,19.50
2019-01-14T03:35:39.841Z,22.93
2019-01-14T03:38:09.164Z,25.00
2019-01-14T03:40:38.787Z,21.67
2019-01-14T03:43:08.231Z,19.17
2019-01-14T03:45:37.608Z,20.23
2019-01-14T03:48:07.004Z,22.80
2019-01-14T03:50:36.457Z,17.50
2019-01-14T03:53:05.911Z,18.53
2019-01-14T03:55:35.353Z,13.07
2019-01-14T03:58:04.876Z,17.17
2019-01-14T04:00:34.378Z,19.23
2019-01-14T04:03:03.693Z,16.90
2019-01-14T04:05:33.169Z,13.67
2019-01-14T04:08:02.739Z,13.23
2019-01-14T04:10:32.231Z,13.57
2019-01-14T04:13:01.747Z,12.70
2019-01-14T04:15:31.112Z,15.53
2019-01-14T04:18:00.515Z,11.70
2019-01-14T04:20:29.995Z,13.73
2019-01-14T04:23:01.210Z,11.97
2019-01-14T04:25:30.556Z,12.00
2019-01-14T04:27:59.963Z,10.03
2019-01-14T04:30:29.377Z,13.50
2019-01-14T04:32:58.733Z,8.93
2019-01-14T04:35:28.209Z,13.77
2019-01-14T04:37:57.564Z,12.83
2019-01-14T04:40:27.016Z,14.93
2019-01-14T04:42:56.419Z,12.03
2019-01-14T04:45:25.932Z,12.27
2019-01-14T04:47:55.402Z,11.37
2019-01-14T04:50:25.011Z,16.07
2019-01-14T04:52:54.404Z,14.63
2019-01-14T04:55:23.772Z,16.20
2019-01-14T04:57:53.171Z,15.77
2019-01-14T05:00:24.585Z,13.77
2019-01-14T05:02:54.001Z,11.60
2019-01-14T05:05:23.585Z,6.63
2019-01-14T05:07:53.007Z,8.37
2019-01-14T05:10:22.607Z,7.47
2019-01-14T05:12:51.979Z,9.23
2019-01-14T05:15:21.411Z,11.43
2019-01-14T05:17:50.765Z,9.53
2019-01-14T05:20:22.257Z,9.83
2019-01-14T05:22:51.765Z,10.53
2019-01-14T05:25:21.238Z,13.20
2019-01-14T05:27:50.757Z,11.43
2019-01-14T05:30:20.632Z,12.43
2019-01-14T05:32:50.276Z,12.67
2019-01-14T05:35:19.752Z,12.47
2019-01-14T05:37:49.113Z,9.03
2019-01-14T05:40:23.515Z,10.70
2019-01-14T05:42:52.874Z,13.60
2019-01-14T05:45:22.209Z,9.63
2019-01-14T05:47:51.690Z,7.63
2019-01-14T05:50:21.066Z,12.67
2019-01-14T05:52:50.521Z,12.97
2019-01-14T05:55:19.896Z,10.80
2019-01-14T05:57:49.235Z,7.27
2019-01-14T06:00:24.152Z,10.27
2019-01-14T06:02:53.561Z,11.30
2019-01-14T06:05:22.967Z,13.30
2019-01-14T06:07:52.292Z,16.53
2019-01-14T06:10:21.654Z,16.70
2019-01-14T06:12:50.951Z,9.07
2019-01-14T06:15:20.554Z,16.67
2019-01-14T06:17:49.840Z,10.87
2019-01-14T06:20:20.876Z,11.77
2019-01-14T06:22:50.174Z,13.93
2019-01-14T06:25:19.508Z,9.73
2019-01-14T06:27:48.876Z,21.67
2019-01-14T06:30:20.568Z,13.03
2019-01-14T06:32:49.894Z,15.03
2019-01-14T06:35:19.226Z,11.30
2019-01-14T06:37:52.504Z,10.73
2019-01-14T06:40:20.252Z,15.43
2019-01-14T06:42:49.599Z,12.73
2019-01-14T06:45:19.171Z,10.57
2019-01-14T06:47:48.552Z,14.13
2019-01-14T06:50:18.937Z,10.93
2019-01-14T06:52:48.411Z,12.60
2019-01-14T06:55:19.233Z,12.93
2019-01-14T06:57:48.687Z,19.83
2019-01-14T07:00:20.582Z,9.90
2019-01-14T07:02:50.108Z,12.83
2019-01-14T07:05:19.661Z,15.67
2019-01-14T07:07:49.358Z,12.93
2019-01-14T07:10:21.636Z,14.50
2019-01-14T07:12:51.119Z,16.47
2019-01-14T07:15:20.522Z,12.93
2019-01-14T07:17:49.881Z,18.50
2019-01-14T07:20:19.541Z,11.03
2019-01-14T07:22:48.924Z,10.93
2019-01-14T07:25:18.307Z,8.60
2019-01-14T07:27:47.698Z,6.80
2019-01-14T07:30:18.887Z,11.33
2019-01-14T07:32:48.228Z,9.20
2019-01-14T07:35:17.601Z,6.97
2019-01-14T07:37:47.508Z,10.63
2019-01-14T07:40:17.242Z,11.70
2019-01-14T07:42:46.601Z,8.57
2019-01-14T07:45:16.938Z,12.07
2019-01-14T07:47:46.254Z,9.27
2019-01-14T07:50:16.542Z,14.97
2019-01-14T07:52:46.014Z,14.13
2019-01-14T07:55:15.329Z,16.90
2019-01-14T07:57:44.674Z,9.13
2019-01-14T08:00:22.947Z,28.17
2019-01-14T08:02:52.525Z,7.67
2019-01-14T08:05:21.847Z,12.67
2019-01-14T08:07:51.342Z,19.80
2019-01-14T08:10:20.683Z,10.00
2019-01-14T08:12:50.054Z,11.20
2019-01-14T08:15:21.056Z,15.20
2019-01-14T08:17:50.378Z,9.13
2019-01-14T08:20:19.703Z,14.70
2019-01-14T08:22:49.120Z,15.97
2019-01-14T08:25:18.464Z,12.87
2019-01-14T08:27:47.807Z,13.17
2019-01-14T08:30:19.093Z,21.90
2019-01-14T08:32:48.542Z,22.20
2019-01-14T08:35:18.053Z,22.93
2019-01-14T08:37:47.374Z,14.97
2019-01-14T08:40:17.941Z,13.63
2019-01-14T08:42:47.411Z,15.90
2019-01-14T08:45:16.792Z,16.57
2019-01-14T08:47:46.083Z,11.60
2019-01-14T08:50:17.517Z,7.87
2019-01-14T08:52:46.853Z,7.90
2019-01-14T08:55:16.200Z,13.47
2019-01-14T08:57:45.583Z,8.00
2019-01-14T09:00:17.304Z,8.77
2019-01-14T09:02:46.647Z,8.57
2019-01-14T09:05:16.318Z,8.47
2019-01-14T09:07:45.679Z,9.70
2019-01-14T09:10:21.010Z,8.77
2019-01-14T09:12:50.308Z,11.20
2019-01-14T09:15:19.877Z,6.47
2019-01-14T09:17:49.316Z,11.50
2019-01-14T09:20:20.141Z,6.90
2019-01-14T09:22:49.452Z,11.60
2019-01-14T09:25:18.828Z,9.50
2019-01-14T09:27:48.395Z,11.60
2019-01-14T09:30:22.539Z,15.10
2019-01-14T09:32:52.117Z,9.77
2019-01-14T09:35:21.462Z,15.93
2019-01-14T09:37:50.827Z,16.87
2019-01-14T09:40:21.730Z,12.67
2019-01-14T09:42:51.090Z,15.63
2019-01-14T09:45:20.438Z,14.37
2019-01-14T09:47:49.891Z,13.87
2019-01-14T09:50:19.331Z,16.27
2019-01-14T09:52:49.673Z,12.10
2019-01-14T09:55:19.951Z,11.37
2019-01-14T09:57:49.408Z,12.63
2019-01-14T10:00:18.841Z,13.43
2019-01-14T10:02:48.430Z,10.80
2019-01-14T10:05:19.586Z,14.77
2019-01-14T10:07:49.136Z,16.43
2019-01-14T10:10:19.463Z,18.00
2019-01-14T10:12:48.777Z,17.43
2019-01-14T10:15:23.083Z,11.60
2019-01-14T10:18:01.062Z,14.27
2019-01-14T10:20:30.445Z,10.47
2019-01-14T10:22:59.927Z,17.03
2019-01-14T10:25:29.400Z,17.47
2019-01-14T10:27:58.790Z,16.63
2019-01-14T10:30:28.106Z,9.57
2019-01-14T10:32:57.699Z,9.37
2019-01-14T10:35:27.265Z,16.30
2019-01-14T10:37:56.548Z,13.10
2019-01-14T10:40:26.000Z,6.50
2019-01-14T10:42:55.384Z,14.43
2019-01-14T10:45:24.898Z,10.53
2019-01-14T10:47:54.354Z,13.43
2019-01-14T10:50:23.879Z,12.97
2019-01-14T10:52:53.500Z,13.20
2019-01-14T10:55:23.023Z,10.80
2019-01-14T10:57:52.869Z,5.87
2019-01-14T11:00:24.824Z,6.60
2019-01-14T11:02:54.573Z,3.33
2019-01-14T11:05:26.954Z,8.83
2019-01-14T11:07:56.703Z,5.07
2019-01-14T11:10:26.790Z,4.37
2019-01-14T11:12:56.609Z,11.27
2019-01-14T11:15:26.416Z,6.63
2019-01-14T11:17:56.669Z,6.60
2019-01-14T11:20:28.537Z,6.37
2019-01-14T11:22:58.439Z,2.73
2019-01-14T11:25:28.273Z,11.37
2019-01-14T11:27:58.231Z,11.23
2019-01-14T11:30:30.406Z,7.50
2019-01-14T11:32:59.966Z,12.47
2019-01-14T11:35:29.783Z,9.67
2019-01-14T11:37:59.448Z,5.90
2019-01-14T11:40:47.653Z,10.37
2019-01-14T11:43:17.267Z,7.17
2019-01-14T11:45:46.870Z,6.00
2019-01-14T11:48:16.632Z,11.33
2019-01-14T11:50:48.281Z,6.37
2019-01-14T11:53:18.165Z,6.27
2019-01-14T11:55:47.901Z,11.17
2019-01-14T11:58:17.760Z,9.33
2019-01-14T12:00:47.294Z,7.07
2019-01-14T12:03:17.019Z,12.00
2019-01-14T12:05:46.768Z,8.03
2019-01-14T12:08:16.609Z,6.13
2019-01-14T12:10:46.481Z,9.60
2019-01-14T12:13:16.596Z,6.70
2019-01-14T12:15:46.404Z,12.60
2019-01-14T12:18:18.457Z,7.83
2019-01-14T12:20:48.004Z,9.70
2019-01-14T12:23:17.708Z,8.53
2019-01-14T12:25:47.728Z,9.00
2019-01-14T12:28:17.462Z,4.60
2019-01-14T12:30:46.923Z,7.50
2019-01-14T12:33:16.326Z,6.70
2019-01-14T12:35:45.633Z,11.97
2019-01-14T12:38:14.940Z,9.50
2019-01-14T12:40:44.245Z,12.60
2019-01-14T12:43:13.594Z,6.57
2019-01-14T12:45:42.888Z,9.63
2019-01-14T12:48:12.216Z,6.77
2019-01-14T12:50:41.836Z,13.17
2019-01-14T12:53:11.125Z,11.80
2019-01-14T12:55:40.459Z,8.00
2019-01-14T12:58:09.744Z,9.83
2019-01-14T13:00:39.072Z,8.93
2019-01-14T13:03:08.412Z,6.97
2019-01-14T13:05:37.853Z,6.40
2019-01-14T13:08:07.195Z,13.17
2019-01-14T13:10:36.495Z,9.60
2019-01-14T13:13:05.915Z,4.20
2019-01-14T13:15:35.255Z,5.17
2019-01-14T13:18:05.523Z,6.57
2019-01-14T13:20:35.041Z,9.73
2019-01-14T13:23:04.492Z,9.10
2019-01-14T13:25:33.827Z,10.27
2019-01-14T13:28:03.159Z,22.50
2019-01-14T13:30:32.511Z,7.63
2019-01-14T13:33:02.029Z,9.60
2019-01-14T13:35:31.390Z,15.27
2019-01-14T13:38:00.772Z,16.00
2019-01-14T13:40:30.119Z,17.90
2019-01-14T13:42:59.412Z,14.27
2019-01-14T13:45:28.783Z,8.83
2019-01-14T13:47:58.126Z,11.30
2019-01-14T13:50:27.932Z,14.23
2019-01-14T13:52:57.226Z,10.50
2019-01-14T13:55:26.567Z,13.67
2019-01-14T13:57:59.876Z,18.07
2019-01-14T14:00:28.087Z,13.40
2019-01-14T14:02:57.446Z,12.97
2019-01-14T14:05:26.779Z,12.40
2019-01-14T14:07:56.113Z,12.53
2019-01-14T14:10:28.139Z,15.50
2019-01-14T14:12:57.634Z,7.83
2019-01-14T14:15:27.077Z,10.73
2019-01-14T14:17:56.683Z,13.77
2019-01-14T14:20:26.162Z,11.83
2019-01-14T14:22:55.504Z,6.63
2019-01-14T14:25:24.821Z,7.73
2019-01-14T14:27:54.189Z,15.63
2019-01-14T14:30:25.980Z,10.10
2019-01-14T14:32:55.352Z,5.20
2019-01-14T14:35:24.718Z,8.57
2019-01-14T14:38:00.611Z,7.87
2019-01-14T14:40:25.129Z,7.30
2019-01-14T14:42:54.601Z,7.20
2019-01-14T14:45:23.928Z,8.83
2019-01-14T14:47:53.335Z,6.30
2019-01-14T14:50:22.719Z,5.90
2019-01-14T14:52:52.166Z,9.07
2019-01-14T14:55:21.512Z,7.23
2019-01-14T14:57:50.907Z,6.47
2019-01-14T15:00:21.400Z,6.33
2019-01-14T15:02:50.967Z,7.13
2019-01-14T15:05:20.657Z,5.53
2019-01-14T15:07:50.072Z,6.97
2019-01-14T15:10:21.037Z,6.47
2019-01-14T15:12:50.497Z,8.90
2019-01-14T15:15:22.084Z,7.93
2019-01-14T15:17:51.423Z,8.83
2019-01-14T15:20:22.427Z,7.77
2019-01-14T15:22:51.776Z,8.07
2019-01-14T15:25:21.116Z,9.83
2019-01-14T15:27:50.451Z,8.80
2019-01-14T15:30:25.280Z,8.53
2019-01-14T15:32:54.581Z,7.30
2019-01-14T15:35:24.232Z,8.17
2019-01-14T15:37:53.558Z,6.70
2019-01-14T15:40:23.604Z,6.13
2019-01-14T15:42:52.924Z,9.77
2019-01-14T15:45:23.463Z,7.07
2019-01-14T15:47:52.789Z,9.07
2019-01-14T15:50:22.165Z,9.40
2019-01-14T15:52:51.517Z,9.00
2019-01-14T15:55:31.024Z,12.23
2019-01-14T15:58:00.371Z,8.80
2019-01-14T16:00:29.730Z,9.60
2019-01-14T16:02:59.075Z,7.30
2019-01-14T16:05:28.435Z,6.70
2019-01-14T16:07:57.771Z,4.03
2019-01-14T16:10:27.323Z,9.00
2019-01-14T16:12:56.750Z,5.97
2019-01-14T16:15:26.214Z,7.03
2019-01-14T16:17:55.548Z,7.87
2019-01-14T16:20:28.382Z,7.23
2019-01-14T16:22:57.706Z,7.00
2019-01-14T16:25:27.061Z,6.43
2019-01-14T16:27:56.379Z,6.33
2019-01-14T16:30:27.252Z,4.87
2019-01-14T16:32:56.616Z,4.63
2019-01-14T16:35:25.959Z,7.73
2019-01-14T16:37:55.328Z,6.97
2019-01-14T16:40:24.665Z,6.13
2019-01-14T16:42:54.155Z,8.63
2019-01-14T16:45:27.402Z,8.00
2019-01-14T16:47:57.077Z,4.80
2019-01-14T16:50:26.423Z,4.97
2019-01-14T16:52:55.787Z,6.10
2019-01-14T16:55:33.969Z,5.70
2019-01-14T16:58:03.343Z,8.23
2019-01-14T17:00:32.739Z,9.40
2019-01-14T17:03:02.129Z,9.73
2019-01-14T17:05:31.459Z,7.00
2019-01-14T17:08:00.828Z,10.13
2019-01-14T17:10:30.201Z,5.73
2019-01-14T17:12:59.638Z,7.00
2019-01-14T17:15:29.024Z,7.87
2019-01-14T17:17:58.401Z,8.53
2019-01-14T17:20:27.745Z,7.70
2019-01-14T17:22:57.201Z,6.37
2019-01-14T17:25:26.601Z,8.33
2019-01-14T17:27:55.985Z,9.30
2019-01-14T17:30:25.302Z,7.73
2019-01-14T17:32:54.833Z,6.03
2019-01-14T17:35:24.168Z,7.13
2019-01-14T17:37:53.605Z,11.17
2019-01-14T17:40:22.943Z,8.37
2019-01-14T17:42:52.282Z,11.47
2019-01-14T17:45:21.624Z,13.53
2019-01-14T17:47:51.053Z,7.30
2019-01-14T17:50:21.250Z,8.77
2019-01-14T17:52:50.581Z,7.37
2019-01-14T17:55:19.916Z,7.30
2019-01-14T17:57:49.277Z,10.40
2019-01-14T18:00:21.068Z,6.80
2019-01-14T18:02:50.349Z,8.37
2019-01-14T18:05:19.715Z,8.10
2019-01-14T18:07:49.071Z,10.33
2019-01-14T18:10:19.067Z,5.90
2019-01-14T18:12:48.402Z,6.43
2019-01-14T18:15:17.728Z,4.07
2019-01-14T18:17:47.192Z,10.97
2019-01-14T18:20:18.407Z,8.40
2019-01-14T18:22:47.855Z,7.80
2019-01-14T18:25:17.270Z,7.83
2019-01-14T18:27:46.737Z,10.73
2019-01-14T18:30:20.615Z,11.33
2019-01-14T18:32:49.953Z,8.07
2019-01-14T18:35:19.350Z,6.27
2019-01-14T18:37:48.862Z,8.53
2019-01-14T18:40:18.978Z,11.80
2019-01-14T18:42:48.732Z,12.10
2019-01-14T18:45:19.979Z,14.57
2019-01-14T18:47:49.668Z,8.90
2019-01-14T18:50:22.992Z,11.67
2019-01-14T18:52:52.447Z,13.27
2019-01-14T18:55:21.761Z,9.03
2019-01-14T18:57:51.141Z,8.27
2019-01-14T19:00:22.877Z,8.50
2019-01-14T19:02:52.334Z,10.13
2019-01-14T19:05:21.729Z,10.17
2019-01-14T19:07:51.048Z,9.97
2019-01-14T19:10:20.435Z,12.30
2019-01-14T19:12:49.778Z,9.60
2019-01-14T19:15:20.536Z,8.03
2019-01-14T19:17:50.473Z,11.57
2019-01-14T19:20:22.192Z,10.27
2019-01-14T19:22:51.633Z,6.73
2019-01-14T19:25:20.955Z,8.87
2019-01-14T19:27:50.445Z,5.90
2019-01-14T19:30:20.505Z,10.13
2019-01-14T19:32:49.945Z,12.83
2019-01-14T19:35:19.393Z,6.43
2019-01-14T19:37:48.712Z,5.53
2019-01-14T19:40:20.104Z,9.43
2019-01-14T19:42:49.694Z,6.87
2019-01-14T19:45:21.324Z,8.80
2019-01-14T19:47:50.747Z,7.20
2019-01-14T19:50:24.462Z,5.03
2019-01-14T19:52:54.924Z,5.47
2019-01-14T19:55:24.308Z,7.07
2019-01-14T19:57:53.807Z,10.13
2019-01-14T20:00:30.872Z,11.67
2019-01-14T20:03:00.356Z,6.93
2019-01-14T20:05:30.053Z,7.57
2019-01-14T20:07:59.561Z,5.57
2019-01-14T20:10:28.971Z,9.73
2019-01-14T20:12:58.408Z,7.40
2019-01-14T20:15:27.919Z,5.40
2019-01-14T20:17:57.293Z,9.13
2019-01-14T20:20:26.692Z,8.57
2019-01-14T20:22:56.104Z,6.70
2019-01-14T20:25:25.731Z,10.83
2019-01-14T20:27:55.096Z,10.90
2019-01-14T20:30:25.229Z,10.80
2019-01-14T20:32:54.592Z,8.50
2019-01-14T20:35:24.062Z,14.37
2019-01-14T20:37:53.567Z,10.90
2019-01-14T20:40:22.902Z,12.97
2019-01-14T20:42:52.285Z,9.37
2019-01-14T20:45:21.692Z,11.00
2019-01-14T20:47:51.606Z,8.63
2019-01-14T20:50:21.717Z,8.00
2019-01-14T20:52:51.128Z,11.53
2019-01-14T20:55:20.544Z,9.03
2019-01-14T20:57:50.009Z,7.53
2019-01-14T21:00:23.096Z,11.80
2019-01-14T21:02:52.629Z,10.87
2019-01-14T21:05:22.793Z,11.67
2019-01-14T21:07:52.198Z,9.23
2019-01-14T21:10:21.599Z,12.57
2019-01-14T21:12:50.967Z,8.87
2019-01-14T21:15:20.467Z,8.27
2019-01-14T21:17:49.956Z,10.53
2019-01-14T21:20:23.841Z,8.97
2019-01-14T21:22:54.031Z,6.87
2019-01-14T21:25:23.438Z,9.23
2019-01-14T21:27:52.883Z,11.97
2019-01-14T21:30:24.245Z,11.07
2019-01-14T21:32:53.714Z,9.33
2019-01-14T21:35:23.168Z,10.63
2019-01-14T21:37:57.641Z,10.47
2019-01-14T21:40:27.009Z,8.53
2019-01-14T21:42:56.676Z,7.40
2019-01-14T21:45:26.175Z,13.30
2019-01-14T21:47:55.504Z,7.63
2019-01-14T21:50:24.850Z,10.87
2019-01-14T21:52:54.205Z,12.77
2019-01-14T21:55:25.306Z,8.53
2019-01-14T21:57:54.661Z,6.83
2019-01-14T22:00:24.955Z,9.00
2019-01-14T22:02:54.509Z,7.70
2019-01-14T22:05:23.983Z,9.00
2019-01-14T22:07:53.481Z,8.17
2019-01-14T22:10:27.804Z,10.30
2019-01-14T22:12:57.169Z,14.20
2019-01-14T22:15:26.587Z,6.83
2019-01-14T22:17:55.972Z,10.63
2019-01-14T22:20:29.626Z,11.23
2019-01-14T22:22:59.301Z,13.23
2019-01-14T22:25:28.768Z,12.13
2019-01-14T22:27:58.141Z,17.53
2019-01-14T22:30:32.511Z,11.83
2019-01-14T22:33:01.874Z,18.40
2019-01-14T22:35:31.352Z,18.63
2019-01-14T22:38:01.684Z,17.53
2019-01-14T22:40:31.095Z,16.57
2019-01-14T22:43:00.505Z,19.70
2019-01-14T22:45:29.868Z,29.27
2019-01-14T22:47:59.241Z,22.03
2019-01-14T22:50:28.580Z,19.33
2019-01-14T22:52:57.936Z,16.07
2019-01-14T22:55:27.270Z,24.67
2019-01-14T22:57:56.640Z,19.37
2019-01-14T23:01:08.108Z,17.63
2019-01-14T23:03:38.014Z,18.77
2019-01-14T23:06:07.399Z,13.00
2019-01-14T23:08:36.810Z,17.83
2019-01-14T23:11:06.248Z,21.27
2019-01-14T23:13:35.607Z,22.77
2019-01-14T23:16:05.383Z,16.33
2019-01-14T23:18:34.700Z,12.20
2019-01-14T23:21:04.768Z,14.37
2019-01-14T23:23:34.109Z,14.30
2019-01-14T23:26:03.419Z,17.00
2019-01-14T23:28:32.756Z,24.03
2019-01-14T23:31:02.109Z,19.67
2019-01-14T23:33:31.441Z,18.60
2019-01-14T23:36:00.749Z,18.93
2019-01-14T23:38:30.170Z,18.03
2019-01-14T23:40:59.551Z,17.40
2019-01-14T23:43:28.870Z,15.37
2019-01-14T23:45:58.259Z,14.33
2019-01-14T23:48:27.595Z,16.30
2019-01-14T23:50:57.110Z,15.57
2019-01-14T23:53:26.465Z,21.87
2019-01-14T23:55:55.792Z,19.73
2019-01-14T23:58:25.187Z,17.40
